Aviation Digital Data Service (ADDS)

Output produced by METARs form (1915 UTC 14 November 2019)
found at http://aviationweather.gov/metar/data/
 
METAR text: KRNT 141900Z 00000KT 6SM BR CLR 10/07 A3000 RMK AO2 T01000072
Conditions at: KRNT (RENTON , WA, US) observed 1900 UTC 14 November 2019
Temperature: 10.0°C (50°F)
Dewpoint: 7.2°C (45°F) [RH = 83%]
Pressure (altimeter): 30.00 inches Hg (1016.0 mb)
Winds: calm
Visibility: 6 miles (10 km)
Ceiling: at least 12,000 feet AGL
Clouds: sky clear below 12,000 feet AGL
Weather: BR  (mist)

METAR text: KRNT 141853Z 15003KT 2SM BR FEW006 10/07 A3000 RMK AO2 SLP163 T01000072
Conditions at: KRNT (RENTON , WA, US) observed 1853 UTC 14 November 2019
Temperature: 10.0°C (50°F)
Dewpoint: 7.2°C (45°F) [RH = 83%]
Pressure (altimeter): 30.00 inches Hg (1016.0 mb)
[Sea-level pressure: 1016.3 mb]
Winds: from the SSE (150 degrees) at 3 MPH (3 knots; 1.5 m/s)
Visibility: 2.00 miles (3.22 km)
Ceiling: at least 12,000 feet AGL
Clouds: few clouds at 600 feet AGL
Weather: BR  (mist)

METAR text: KRNT 141846Z 16004KT 2SM BR FEW006 10/07 A3000 RMK AO2 T01000072
Conditions at: KRNT (RENTON , WA, US) observed 1846 UTC 14 November 2019
Temperature: 10.0°C (50°F)
Dewpoint: 7.2°C (45°F) [RH = 83%]
Pressure (altimeter): 30.00 inches Hg (1016.0 mb)
Winds: from the SSE (160 degrees) at 5 MPH (4 knots; 2.1 m/s)
Visibility: 2.00 miles (3.22 km)
Ceiling: at least 12,000 feet AGL
Clouds: few clouds at 600 feet AGL
Weather: BR  (mist)

METAR text: KRNT 141753Z 17005KT 2SM BR OVC006 10/07 A3002 RMK AO2 SLP171 T01000072 10100 20072 50000
Conditions at: KRNT (RENTON , WA, US) observed 1753 UTC 14 November 2019
Temperature: 10.0°C (50°F)
Dewpoint: 7.2°C (45°F) [RH = 83%]
Pressure (altimeter): 30.02 inches Hg (1016.7 mb)
[Sea-level pressure: 1017.1 mb]
Winds: from the S (170 degrees) at 6 MPH (5 knots; 2.6 m/s)
Visibility: 2.00 miles (3.22 km)
Ceiling: 600 feet AGL
Clouds: overcast cloud deck at 600 feet AGL
Weather: BR  (mist)

METAR text: KRNT 141716Z 12003KT 2SM BR OVC005 08/07 A3003 RMK AO2 T00830067
Conditions at: KRNT (RENTON , WA, US) observed 1716 UTC 14 November 2019
Temperature: 8.3°C (47°F)
Dewpoint: 6.7°C (44°F) [RH = 90%]
Pressure (altimeter): 30.03 inches Hg (1017.0 mb)
Winds: from the ESE (120 degrees) at 3 MPH (3 knots; 1.5 m/s)
Visibility: 2.00 miles (3.22 km)
Ceiling: 500 feet AGL
Clouds: overcast cloud deck at 500 feet AGL
Weather: BR  (mist)